• Join FlightAware (Why Join?)
  • Login
  • US Flag 
08:03PM EST


 

Airport Tracker/Info


-or-


 

Live Flight TrackerFlight Track Log ✈ AWE3827 ✈ 14-Apr-2013 ✈ KCLT - KBNA

Flight Track Log - Related Links

Times and Time Zones

All times are in EDT time to prevent confusion due to time zone crossing. See the AWE3827 flight status page for this flight to view local times or setup timezone preferences in your user account.

Time Position Orientation Groundspeed Altitude Reporting Facility
EDT Latitude Longitude Course Direction KTS MPH feet Rate Location/Type
08:12AM 35.1975 -80.9533 239° Southwest 151 174 1,600  Level Atlanta Center
08:13AM 35.1517 -80.9525 179° South 186 214 3,200 2,100 Climbing Atlanta Center
08:14AM 35.0964 -80.9925 211° Southwest 278 320 5,700 2,460 Climbing Atlanta Center
08:15AM 35.2555 -81.1493 282° West  Level FlightAware Approximate
08:15AM 35.0908 -81.0233 258° West 277 319 6,800  Level Atlanta Center
08:15AM 35.0922 -81.0789 272° West 288 331 8,300 3,180 Climbing Atlanta Center
08:16AM 35.2490 -81.2578 242° Southwest  Level FlightAware Approximate
08:16AM 35.0997 -81.1294 280° West 277 319 10,000  Level Atlanta Center
08:16AM 35.1292 -81.1489 332° Northwest 274 315 11,500 2,460 Climbing Atlanta Center
08:17AM 35.2039 -81.3589 239° Southwest  Level FlightAware Approximate
08:17AM 35.1675 -81.1778 328° Northwest 285 328 12,500  Level Atlanta Center
08:17AM 35.1950 -81.1997 327° Northwest 285 328 13,800 1,560 Climbing Atlanta Center
08:18AM 35.1548 -81.4571 239° Southwest  Level FlightAware Approximate
08:18AM 35.2275 -81.2444 312° West 293 337 14,100  Level Atlanta Center
08:19AM 35.2022 -81.3292 250° West 288 331 14,100 900 Level Atlanta Center
08:20AM 35.1708 -81.4242 248° West 295 339 16,000 1,800 Climbing Atlanta Center
08:21AM 35.1458 -81.5267 253° West 310 357 17,800 1,800 Climbing Atlanta Center
08:22AM 35.1397 -81.6336 266° West 310 357 19,700 1,560 Climbing Atlanta Center
08:23AM 35.1311 -81.7328 264° West 328 377 21,000 1,260 Climbing Atlanta Center
08:24AM 35.1208 -81.8447 264° West 333 383 22,300 960 Climbing Atlanta Center
08:25AM 35.1122 -81.9567 265° West 333 383 23,000 300 Climbing Atlanta Center
08:26AM 35.1017 -82.0764 264° West 346 398 23,000 420 Level Atlanta Center
08:27AM 35.0953 -82.1958 266° West 356 410 23,900 480 Climbing Atlanta Center
08:28AM 35.0992 -82.3225 272° West 348 400 24,000 60 Climbing Atlanta Center
08:29AM 35.1611 -82.4256 306° West 340 391 24,100 600 Climbing Atlanta Center
08:30AM 35.2164 -82.5236 305° West 345 397 25,300 900 Climbing Atlanta Center
08:31AM 35.2678 -82.6194 303° West 353 406 26,000 300 Climbing Atlanta Center
08:32AM 35.3211 -82.7253 302° West 353 406 26,000  Level Atlanta Center
08:33AM 35.3744 -82.8367 300° West 365 420 26,000  Level Atlanta Center
08:34AM 35.4275 -82.9403 302° West 365 420 26,000  Level Atlanta Center
08:35AM 35.4806 -83.0417 303° West 365 420 26,000  Level Atlanta Center
08:36AM 35.5294 -83.1431 301° West 354 407 26,000  Level Atlanta Center
08:37AM 35.5778 -83.2319 304° West 354 407 26,000  Level Atlanta Center
08:38AM 35.6264 -83.3311 301° West 349 402 26,000  Level Atlanta Center
08:39AM 35.6731 -83.4278 301° West 344 396 26,000  Level Atlanta Center
08:40AM 35.7214 -83.5219 302° West 339 390 26,000  Level Atlanta Center
08:41AM 35.7614 -83.6217 296° West 339 390 26,000  Level Atlanta Center
08:42AM 35.7575 -83.7367 268° West 322 371 26,000  Level Atlanta Center
08:43AM 35.7536 -83.8544 268° West 332 382 26,000 -540 Level Atlanta Center
08:44AM 35.7475 -83.9722 266° West 344 396 25,000 -1,020 Descending Atlanta Center
08:45AM 35.7433 -84.0925 268° West 349 402 24,000 -960 Descending Atlanta Center
08:46AM 35.7369 -84.2075 266° West 349 402 23,100 -900 Descending Atlanta Center
08:47AM 35.7306 -84.3381 267° West 349 402 22,200 -960 Descending Atlanta Center
08:48AM 35.7239 -84.4608 266° West 349 402 21,200 -1,080 Descending Atlanta Center
08:49AM 35.7169 -84.5836 266° West 359 413 20,100 -600 Descending Atlanta Center
08:50AM 35.7103 -84.7036 266° West 359 413 20,000 -60 Descending Atlanta Center
08:52AM 35.6967 -84.9531 266° West 370 426 20,000  Level Memphis Center
08:53AM 35.6897 -85.0789 266° West 370 426 20,000  Level Memphis Center
08:54AM 35.6822 -85.1994 266° West 370 426 20,000  Level Memphis Center
08:55AM 35.6603 -85.3236 258° West 370 426 20,000  Level Memphis Center
08:56AM 35.6467 -85.4519 263° West 375 432 20,000 -600 Level Memphis Center
08:57AM 35.6503 -85.5975 272° West 380 437 18,900 -1,080 Descending Memphis Center
08:58AM 35.6553 -85.7325 273° West 387 445 17,900 -1,320 Descending Memphis Center
08:59AM 35.6581 -85.8628 272° West 387 445 16,300 -1,800 Descending Memphis Center
09:00AM 35.6647 -85.9953 274° West 387 445 14,400 -1,860 Descending Memphis Center
09:01AM 35.7064 -86.1106 294° West 375 432 12,600 -1,620 Descending Memphis Center
09:02AM 35.7700 -86.2019 311° West 375 432 11,200 -1,320 Descending Memphis Center
09:03AM 35.8397 -86.2958 313° West 380 437 10,000 -900 Descending Memphis Center
09:04AM 35.8983 -86.3697 314° West 342 394 9,400 -1,260 Descending Memphis Center
09:05AM 35.9506 -86.4389 313° West 289 333 7,500 -1,740 Descending Memphis Center
09:06AM 36.0028 -86.5083 313° West 275 316 6,000 -900 Descending Memphis Center
09:07AM 36.0506 -86.5678 315° West 260 299 5,700 -540 Descending Memphis Center
09:08AM 36.1169 -86.5569 North 226 260 5,000 -1,080 Descending Memphis Center
09:09AM 36.1678 -86.5803 340° North 195 224 3,600 -1,440 Descending Memphis Center